createdAt,value
2023-03-11T00:00:49.651Z,3.19
2023-03-11T00:05:53.012Z,2.72
2023-03-11T00:10:56.324Z,2.56
2023-03-11T00:15:58.052Z,2.30
2023-03-11T00:21:00.620Z,2.21
2023-03-11T00:26:03.300Z,2.10
2023-03-11T00:31:05.083Z,1.94
2023-03-11T00:36:07.235Z,1.85
2023-03-11T00:41:08.944Z,1.75
2023-03-11T00:46:10.713Z,1.62
2023-03-11T00:51:15.005Z,1.61
2023-03-11T00:56:16.906Z,1.56
2023-03-11T01:01:20.199Z,1.56
2023-03-11T01:06:23.394Z,1.58
2023-03-11T01:11:27.862Z,1.60
2023-03-11T01:16:29.638Z,1.56
2023-03-11T01:21:31.389Z,1.55
2023-03-11T01:26:33.064Z,1.57
2023-03-11T01:31:34.714Z,1.55
2023-03-11T01:36:36.815Z,1.52
2023-03-11T01:41:38.431Z,1.52
2023-03-11T01:46:52.302Z,1.47
2023-03-11T01:52:07.681Z,1.47
2023-03-11T01:57:14.856Z,1.46
2023-03-11T02:02:28.902Z,1.39
2023-03-11T02:07:31.404Z,1.41
2023-03-11T02:12:36.122Z,1.42
2023-03-11T02:17:39.698Z,1.40
2023-03-11T02:22:42.515Z,1.38
2023-03-11T02:27:47.728Z,1.36
2023-03-11T02:32:50.721Z,1.31
2023-03-11T02:37:54.439Z,1.26
2023-03-11T02:43:00.948Z,1.26
2023-03-11T02:48:04.067Z,1.27
2023-03-11T02:53:08.108Z,1.30
2023-03-11T02:58:10.100Z,1.24
2023-03-11T03:03:12.020Z,1.12
2023-03-11T03:08:15.027Z,1.05
2023-03-11T03:13:17.063Z,0.96
2023-03-11T03:18:19.020Z,0.91
2023-03-11T03:23:21.127Z,0.84
2023-03-11T03:28:22.958Z,0.72
2023-03-11T03:33:25.096Z,0.62
2023-03-11T03:38:35.184Z,0.56
2023-03-11T03:43:37.342Z,0.49
2023-03-11T03:48:39.790Z,0.50
2023-03-11T03:53:51.554Z,0.55
2023-03-11T03:58:54.473Z,0.51
2023-03-11T04:04:01.006Z,0.50
2023-03-11T04:09:03.615Z,0.51
2023-03-11T04:14:09.633Z,0.45
2023-03-11T04:19:18.015Z,0.42
2023-03-11T04:24:20.511Z,0.40
2023-03-11T04:29:23.145Z,0.31
2023-03-11T04:34:28.069Z,0.29
2023-03-11T04:39:30.389Z,0.24
2023-03-11T04:44:36.007Z,0.27
2023-03-11T04:49:39.232Z,0.25
2023-03-11T04:54:43.559Z,0.29
2023-03-11T04:59:45.992Z,0.32
2023-03-11T05:04:49.489Z,0.35
2023-03-11T05:09:51.250Z,0.39
2023-03-11T05:14:53.189Z,0.41
2023-03-11T05:19:55.772Z,0.45
2023-03-11T05:25:02.432Z,0.45
2023-03-11T05:30:06.741Z,0.44
2023-03-11T05:35:11.106Z,0.46
2023-03-11T05:40:13.309Z,0.50
2023-03-11T05:45:15.770Z,0.54
2023-03-11T05:50:20.416Z,0.50
2023-03-11T05:55:23.571Z,0.50
2023-03-11T06:00:25.841Z,0.51
2023-03-11T06:05:28.441Z,0.52
2023-03-11T06:10:31.378Z,0.49
2023-03-11T06:15:34.449Z,0.49
2023-03-11T06:20:37.828Z,0.49
2023-03-11T06:25:39.719Z,0.53
2023-03-11T06:30:42.262Z,0.56
2023-03-11T06:35:59.106Z,0.57
2023-03-11T06:41:02.740Z,0.62
2023-03-11T06:46:16.843Z,0.61
2023-03-11T06:51:19.984Z,0.62
2023-03-11T06:56:23.224Z,0.61
2023-03-11T07:01:32.760Z,0.62
2023-03-11T07:06:37.151Z,0.61
2023-03-11T07:11:53.669Z,0.59
2023-03-11T07:17:02.119Z,0.57
2023-03-11T07:22:09.547Z,0.57
2023-03-11T07:27:11.182Z,0.54
2023-03-11T07:32:12.988Z,0.51
2023-03-11T07:37:15.495Z,0.51
2023-03-11T07:42:17.418Z,0.59
2023-03-11T07:47:21.364Z,0.63
2023-03-11T07:52:23.180Z,0.61
2023-03-11T07:57:25.034Z,0.62
2023-03-11T08:02:27.200Z,0.62
2023-03-11T08:07:31.602Z,0.56
2023-03-11T08:12:33.851Z,0.54
2023-03-11T08:17:35.775Z,0.66
2023-03-11T08:22:43.435Z,0.72
2023-03-11T08:27:50.541Z,0.76
2023-03-11T08:32:52.407Z,0.82
2023-03-11T08:37:54.717Z,0.85
2023-03-11T08:42:56.813Z,0.94
2023-03-11T08:47:58.601Z,0.95
2023-03-11T08:53:03.248Z,0.98
2023-03-11T08:58:05.175Z,1.03
2023-03-11T09:03:07.075Z,1.01
2023-03-11T09:08:08.868Z,1.07
2023-03-11T09:13:10.568Z,1.08
2023-03-11T09:18:16.296Z,0.99
2023-03-11T09:23:18.733Z,0.82
2023-03-11T09:28:20.631Z,0.70
2023-03-11T09:33:22.462Z,0.68
2023-03-11T09:38:24.605Z,0.74
2023-03-11T09:43:35.752Z,0.72
2023-03-11T09:48:40.738Z,0.78
2023-03-11T09:53:44.573Z,0.97
2023-03-11T09:58:48.540Z,1.07
2023-03-11T10:03:53.270Z,1.16
2023-03-11T10:09:04.322Z,1.24
2023-03-11T10:14:22.629Z,1.33
2023-03-11T10:19:50.627Z,1.44
2023-03-11T10:25:00.649Z,1.60
2023-03-11T10:30:13.797Z,1.67
2023-03-11T10:35:16.865Z,1.84
2023-03-11T10:40:40.175Z,1.89
2023-03-11T10:45:44.881Z,2.04
2023-03-11T10:50:50.777Z,2.27
2023-03-11T10:55:57.398Z,2.61
2023-03-11T11:01:15.647Z,2.47
2023-03-11T11:06:27.858Z,2.14
2023-03-11T11:11:29.580Z,1.82
2023-03-11T11:16:33.535Z,1.68
2023-03-11T11:21:39.467Z,1.65
2023-03-11T11:26:41.563Z,1.84
2023-03-11T11:31:46.070Z,1.89
2023-03-11T11:36:47.780Z,1.85
2023-03-11T11:41:50.194Z,1.86
2023-03-11T11:46:56.955Z,1.95
2023-03-11T11:52:01.341Z,2.45
2023-03-11T11:57:11.549Z,3.02
2023-03-11T12:02:19.118Z,3.03
2023-03-11T12:07:38.591Z,2.94
2023-03-11T12:12:56.609Z,2.69
2023-03-11T12:18:03.185Z,2.40
2023-03-11T12:23:11.756Z,2.28
2023-03-11T12:28:32.210Z,2.21
2023-03-11T12:33:53.642Z,2.23
2023-03-11T12:38:55.437Z,2.05
2023-03-11T12:43:59.607Z,1.93
2023-03-11T12:49:14.972Z,1.80
2023-03-11T12:54:34.070Z,1.75
2023-03-11T12:59:54.548Z,1.40
2023-03-11T13:05:11.236Z,1.24
2023-03-11T13:10:12.878Z,1.21
2023-03-11T13:15:28.813Z,1.43
2023-03-11T13:20:41.428Z,1.74
2023-03-11T13:25:51.911Z,1.87
2023-03-11T13:31:05.811Z,1.84
2023-03-11T13:36:17.420Z,1.95
2023-03-11T13:41:31.186Z,2.16
2023-03-11T13:46:40.478Z,2.11
2023-03-11T13:51:44.895Z,2.17
2023-03-11T13:56:57.111Z,2.23
2023-03-11T14:02:11.944Z,2.33
2023-03-11T14:07:15.334Z,2.31
2023-03-11T14:12:19.036Z,2.23
2023-03-11T14:17:21.161Z,2.21
2023-03-11T14:22:22.906Z,2.41
2023-03-11T14:27:24.583Z,2.36
2023-03-11T14:32:28.467Z,2.52
2023-03-11T14:37:34.295Z,2.74
2023-03-11T14:42:38.864Z,2.84
2023-03-11T14:47:44.920Z,2.64
2023-03-11T14:52:50.439Z,2.67
2023-03-11T14:57:55.593Z,2.63
2023-03-11T15:03:34.905Z,2.67
2023-03-11T15:08:46.890Z,2.52
2023-03-11T15:13:51.212Z,2.41
2023-03-11T15:18:54.434Z,2.34
2023-03-11T15:24:06.543Z,2.45
2023-03-11T15:29:16.678Z,2.43
2023-03-11T15:34:18.309Z,2.47
2023-03-11T15:39:32.285Z,2.53
2023-03-11T15:44:42.071Z,2.59
2023-03-11T15:49:43.916Z,2.51
2023-03-11T15:54:54.730Z,2.44
2023-03-11T15:59:59.220Z,2.29
2023-03-11T16:05:00.961Z,2.30
2023-03-11T16:10:04.359Z,2.33
2023-03-11T16:15:07.325Z,2.28
2023-03-11T16:20:09.543Z,2.26
2023-03-11T16:25:20.607Z,2.24
2023-03-11T16:30:23.732Z,2.20
2023-03-11T16:35:25.969Z,2.11
2023-03-11T16:40:28.951Z,2.05
2023-03-11T16:45:30.904Z,1.91
2023-03-11T16:50:34.265Z,1.77
2023-03-11T16:55:36.713Z,1.75
2023-03-11T17:00:38.682Z,1.66
2023-03-11T17:05:40.682Z,1.60
2023-03-11T17:10:44.292Z,1.51
2023-03-11T17:15:46.682Z,1.33
2023-03-11T17:20:48.332Z,1.12
2023-03-11T17:25:49.987Z,0.99
2023-03-11T17:30:51.733Z,0.80
2023-03-11T17:36:01.968Z,0.78
2023-03-11T17:41:08.709Z,0.60
2023-03-11T17:46:14.404Z,0.48
2023-03-11T17:51:21.546Z,0.44
2023-03-11T17:56:23.622Z,0.38
2023-03-11T18:01:27.248Z,0.34
2023-03-11T18:06:29.497Z,0.24
2023-03-11T18:11:31.281Z,0.15
2023-03-11T18:16:33.863Z,0.08
2023-03-11T18:21:35.623Z,0.03
2023-03-11T18:26:37.440Z,-0.01
2023-03-11T18:31:39.381Z,0.01
2023-03-11T18:36:41.696Z,-0.11
2023-03-11T18:41:43.764Z,-0.18
2023-03-11T18:46:45.469Z,-0.26
2023-03-11T18:51:47.113Z,-0.31
2023-03-11T18:56:49.831Z,-0.34
2023-03-11T19:01:51.805Z,-0.42
2023-03-11T19:06:53.559Z,-0.50
2023-03-11T19:11:55.393Z,-0.59
2023-03-11T19:16:57.215Z,-0.71
2023-03-11T19:21:58.910Z,-0.75
2023-03-11T19:27:00.544Z,-0.71
2023-03-11T19:32:03.561Z,-0.84
2023-03-11T19:37:05.465Z,-0.87
2023-03-11T19:42:07.233Z,-0.91
2023-03-11T19:47:08.966Z,-0.99
2023-03-11T19:52:11.182Z,-1.02
2023-03-11T19:57:12.887Z,-1.11
2023-03-11T20:02:14.785Z,-1.07
2023-03-11T20:07:16.750Z,-1.11
2023-03-11T20:12:18.473Z,-1.14
2023-03-11T20:17:20.174Z,-1.10
2023-03-11T20:22:22.086Z,-1.03
2023-03-11T20:27:23.758Z,-1.04
2023-03-11T20:32:25.549Z,-1.10
2023-03-11T20:37:29.740Z,-1.12
2023-03-11T20:42:31.943Z,-1.14
2023-03-11T20:47:33.765Z,-1.24
2023-03-11T20:52:36.315Z,-1.35
2023-03-11T20:57:38.696Z,-1.38
2023-03-11T21:02:41.927Z,-1.40
2023-03-11T21:07:43.745Z,-1.41
2023-03-11T21:12:45.411Z,-1.29
2023-03-11T21:17:47.090Z,-1.44
2023-03-11T21:22:48.792Z,-1.43
2023-03-11T21:27:50.471Z,-1.29
2023-03-11T21:32:52.252Z,-1.34
2023-03-11T21:37:54.524Z,-1.28
2023-03-11T21:42:56.223Z,-1.20
2023-03-11T21:47:58.033Z,-1.24
2023-03-11T21:52:59.720Z,-1.12
2023-03-11T21:58:01.404Z,-1.05
2023-03-11T22:03:03.324Z,-1.08
2023-03-11T22:08:05.873Z,-1.12
2023-03-11T22:13:08.004Z,-1.07
2023-03-11T22:18:10.638Z,-1.16
2023-03-11T22:23:12.482Z,-1.40
2023-03-11T22:28:14.794Z,-1.48
2023-03-11T22:33:16.448Z,-1.35
2023-03-11T22:38:18.292Z,-1.47
2023-03-11T22:43:20.056Z,-1.44
2023-03-11T22:48:22.489Z,-1.38
2023-03-11T22:53:25.073Z,-1.15
2023-03-11T22:58:27.297Z,-1.33
2023-03-11T23:03:29.235Z,-1.42
2023-03-11T23:08:30.942Z,-1.40
2023-03-11T23:13:35.602Z,-1.45
2023-03-11T23:18:37.377Z,-1.41
2023-03-11T23:23:39.088Z,-1.43
2023-03-11T23:28:41.328Z,-1.61
2023-03-11T23:33:43.420Z,-1.54
2023-03-11T23:38:45.497Z,-1.62
2023-03-11T23:43:47.585Z,-1.63
2023-03-11T23:48:49.512Z,-1.64
2023-03-11T23:53:51.166Z,-1.62
2023-03-11T23:58:52.845Z,-1.75
